createdAt,value
2023-05-10T00:00:16.684Z,21.2
2023-05-10T00:05:20.074Z,21.2
2023-05-10T00:10:16.124Z,21.1
2023-05-10T00:15:14.520Z,21.1
2023-05-10T00:20:14.750Z,21.1
2023-05-10T00:25:16.187Z,21.1
2023-05-10T00:30:18.381Z,21.1
2023-05-10T00:35:15.853Z,21.1
2023-05-10T00:40:13.965Z,21.1
2023-05-10T00:45:16.415Z,21
2023-05-10T00:50:16.378Z,21
2023-05-10T00:55:16.367Z,21
2023-05-10T01:00:16.504Z,21
2023-05-10T01:05:14.236Z,21
2023-05-10T01:10:14.410Z,21
2023-05-10T01:15:13.792Z,21
2023-05-10T01:20:18.378Z,20.9
2023-05-10T01:25:18.868Z,20.9
2023-05-10T01:30:37.696Z,20.9
2023-05-10T01:35:16.654Z,20.9
2023-05-10T01:40:15.066Z,20.9
2023-05-10T01:45:18.736Z,20.9
2023-05-10T01:50:15.754Z,20.8
2023-05-10T01:55:18.609Z,20.8
2023-05-10T02:00:14.583Z,20.8
2023-05-10T02:05:14.271Z,20.8
2023-05-10T02:10:18.285Z,20.8
2023-05-10T02:15:18.558Z,20.8
2023-05-10T02:20:20.496Z,20.8
2023-05-10T02:25:16.623Z,20.8
2023-05-10T02:30:14.941Z,20.7
2023-05-10T02:35:14.269Z,20.7
2023-05-10T02:40:20.493Z,20.7
2023-05-10T02:45:18.476Z,20.7
2023-05-10T02:50:14.428Z,20.7
2023-05-10T02:55:20.970Z,20.6
2023-05-10T03:00:16.156Z,20.7
2023-05-10T03:05:16.272Z,20.6
2023-05-10T03:10:18.401Z,20.5
2023-05-10T03:15:14.078Z,20.4
2023-05-10T03:20:16.020Z,20.3
2023-05-10T03:25:15.986Z,20.3
2023-05-10T03:30:13.916Z,20.2
2023-05-10T03:35:14.161Z,20.1
2023-05-10T03:40:16.362Z,20.1
2023-05-10T03:45:16.140Z,20.1
2023-05-10T03:50:16.274Z,20
2023-05-10T03:55:20.190Z,20
2023-05-10T04:00:18.371Z,20
2023-05-10T04:05:14.200Z,20
2023-05-10T04:10:18.468Z,20.1
2023-05-10T04:15:20.103Z,20.1
2023-05-10T04:20:26.157Z,20.2
2023-05-10T04:25:22.029Z,20.2
2023-05-10T04:30:15.986Z,20.4
2023-05-10T04:35:20.522Z,20.4
2023-05-10T04:40:16.537Z,20.5
2023-05-10T04:45:16.051Z,20.5
2023-05-10T04:50:14.089Z,20.5
2023-05-10T04:55:14.402Z,20.6
2023-05-10T05:00:16.473Z,20.6
2023-05-10T05:05:16.593Z,20.6
2023-05-10T05:10:14.520Z,20.6
2023-05-10T05:15:13.789Z,20.6
2023-05-10T05:20:17.870Z,20.6
2023-05-10T05:25:14.669Z,20.6
2023-05-10T05:30:16.718Z,20.6
2023-05-10T05:35:17.286Z,20.7
2023-05-10T05:40:19.867Z,20.6
2023-05-10T05:45:15.901Z,20.6
2023-05-10T05:50:18.771Z,20.7
2023-05-10T05:55:19.482Z,20.6
2023-05-10T06:00:15.868Z,20.6
2023-05-10T06:05:20.156Z,20.6
2023-05-10T06:10:18.139Z,20.6
2023-05-10T06:15:18.337Z,20.6
2023-05-10T06:20:19.718Z,20.6
2023-05-10T06:25:16.560Z,20.6
2023-05-10T06:30:33.873Z,20.6
2023-05-10T06:35:22.150Z,20.6
2023-05-10T06:40:28.072Z,20.6
2023-05-10T06:45:18.142Z,20.6
2023-05-10T06:50:15.777Z,20.6
2023-05-10T06:55:19.644Z,20.6
2023-05-10T07:00:14.812Z,20.6
2023-05-10T07:05:15.467Z,20.6
2023-05-10T07:10:20.161Z,20.6
2023-05-10T07:15:16.312Z,20.6
2023-05-10T07:20:22.195Z,20.6
2023-05-10T07:25:19.970Z,20.6
2023-05-10T07:30:15.874Z,20.6
2023-05-10T07:35:18.354Z,20.6
2023-05-10T07:40:14.578Z,20.6
2023-05-10T07:45:17.057Z,20.6
2023-05-10T07:50:16.568Z,20.6
2023-05-10T07:55:16.879Z,20.6
2023-05-10T08:00:14.253Z,20.6
2023-05-10T08:05:24.649Z,20.6
2023-05-10T08:10:16.945Z,20.6
2023-05-10T08:15:18.069Z,20.6
2023-05-10T08:20:15.918Z,20.6
2023-05-10T08:25:20.242Z,20.6
2023-05-10T08:30:15.162Z,20.6
2023-05-10T08:35:16.062Z,20.6
2023-05-10T08:40:16.655Z,20.6
2023-05-10T08:45:17.016Z,20.6
2023-05-10T08:50:16.610Z,20.6
2023-05-10T08:55:18.570Z,20.6
2023-05-10T09:00:17.891Z,20.6
2023-05-10T09:05:15.048Z,20.6
2023-05-10T09:10:16.388Z,20.6
2023-05-10T09:15:31.223Z,20.7
2023-05-10T09:20:16.339Z,20.6
2023-05-10T09:25:22.136Z,20.6
2023-05-10T09:30:16.612Z,20.7
2023-05-10T09:35:18.722Z,20.7
2023-05-10T09:40:20.396Z,20.7
2023-05-10T09:45:19.212Z,20.7
2023-05-10T09:50:20.506Z,20.7
2023-05-10T09:55:16.516Z,20.7
2023-05-10T10:00:22.731Z,20.8
2023-05-10T10:05:16.442Z,20.8
2023-05-10T10:10:13.784Z,20.9
2023-05-10T10:15:19.229Z,20.9
2023-05-10T10:20:20.928Z,21
2023-05-10T10:25:18.817Z,21
2023-05-10T10:30:15.035Z,21
2023-05-10T10:35:13.884Z,21
2023-05-10T10:40:15.964Z,21.1
2023-05-10T10:45:16.315Z,21.1
2023-05-10T10:50:14.020Z,21.1
2023-05-10T10:55:18.233Z,21.1
2023-05-10T11:00:20.161Z,21.1
2023-05-10T11:05:19.133Z,21.1
2023-05-10T11:10:15.940Z,21.2
2023-05-10T11:15:15.968Z,21.2
2023-05-10T11:20:21.722Z,21.2
2023-05-10T11:25:22.624Z,21.2
2023-05-10T11:30:18.626Z,21.2
2023-05-10T11:35:14.665Z,21.2
2023-05-10T11:40:22.761Z,21.2
2023-05-10T11:45:16.253Z,21.2
2023-05-10T11:50:16.340Z,21.2
2023-05-10T11:55:13.530Z,21.2
2023-05-10T12:00:16.822Z,21.2
2023-05-10T12:05:18.774Z,21.2
2023-05-10T12:10:19.914Z,21.2
2023-05-10T12:15:13.717Z,21.3
2023-05-10T12:20:17.972Z,21.3
2023-05-10T12:25:14.927Z,21.3
2023-05-10T12:30:19.689Z,21.3
2023-05-10T12:35:17.374Z,21.3
2023-05-10T12:40:14.327Z,21.3
2023-05-10T12:45:14.252Z,21.4
2023-05-10T12:50:18.457Z,21.5
2023-05-10T12:55:17.528Z,21.4
2023-05-10T13:00:16.477Z,21.4
2023-05-10T13:05:22.453Z,21.3
2023-05-10T13:10:20.254Z,21.3
2023-05-10T13:15:14.548Z,21.3
2023-05-10T13:20:14.615Z,21.3
2023-05-10T13:25:13.512Z,21.3
2023-05-10T13:30:25.111Z,21.3
2023-05-10T13:35:17.965Z,21.3
2023-05-10T13:40:20.162Z,21.3
2023-05-10T13:45:28.295Z,21.3
2023-05-10T13:50:15.973Z,21.3
2023-05-10T13:55:13.680Z,21.3
2023-05-10T14:00:21.119Z,21.3
2023-05-10T14:05:19.259Z,21.3
2023-05-10T14:10:16.049Z,21.3
2023-05-10T14:15:18.263Z,21.3
2023-05-10T14:20:19.583Z,21.3
2023-05-10T14:25:16.799Z,21.4
2023-05-10T14:30:14.922Z,21.4
2023-05-10T14:35:14.927Z,21.4
2023-05-10T14:40:22.564Z,21.4
2023-05-10T14:45:20.296Z,21.4
2023-05-10T14:50:36.342Z,21.5
2023-05-10T14:55:16.541Z,21.5
2023-05-10T15:00:14.378Z,21.5
2023-05-10T15:05:15.839Z,21.5
2023-05-10T15:10:20.000Z,21.5
2023-05-10T15:15:13.990Z,21.5
2023-05-10T15:20:18.242Z,21.5
2023-05-10T15:25:14.300Z,21.5
2023-05-10T15:30:17.274Z,21.6
2023-05-10T15:35:14.707Z,21.6
2023-05-10T15:40:24.010Z,21.6
2023-05-10T15:45:16.927Z,21.6
2023-05-10T15:50:16.626Z,21.6
2023-05-10T15:55:19.260Z,21.6
2023-05-10T16:00:14.646Z,21.6
2023-05-10T16:05:17.728Z,21.7
2023-05-10T16:10:18.527Z,21.8
2023-05-10T16:15:16.602Z,21.8
2023-05-10T16:20:20.982Z,21.8
2023-05-10T16:25:13.876Z,21.9
2023-05-10T16:30:14.282Z,21.9
2023-05-10T16:35:14.310Z,22
2023-05-10T16:40:14.539Z,22
2023-05-10T16:45:18.814Z,22.1
2023-05-10T16:50:14.627Z,22.1
2023-05-10T16:55:16.767Z,22.2
2023-05-10T17:00:20.293Z,22.2
2023-05-10T17:05:16.758Z,22.2
2023-05-10T17:10:18.535Z,22.3
2023-05-10T17:15:15.223Z,22.2
2023-05-10T17:20:15.688Z,22.2
2023-05-10T17:25:16.940Z,22.2
2023-05-10T17:30:19.281Z,22.2
2023-05-10T17:35:20.220Z,22.1
2023-05-10T17:40:18.090Z,22.1
2023-05-10T17:45:20.209Z,22.1
2023-05-10T17:50:16.400Z,22.1
2023-05-10T17:55:21.143Z,22.1
2023-05-10T18:00:16.571Z,22.1
2023-05-10T18:05:14.342Z,22.1
2023-05-10T18:10:13.885Z,22.1
2023-05-10T18:15:13.739Z,22.1
2023-05-10T18:20:31.872Z,22.1
2023-05-10T18:25:24.040Z,22.1
2023-05-10T18:30:25.928Z,22
2023-05-10T18:35:18.492Z,22
2023-05-10T18:40:16.162Z,21.9
2023-05-10T18:45:18.383Z,21.9
2023-05-10T18:50:21.948Z,21.9
2023-05-10T18:55:17.860Z,22
2023-05-10T19:00:16.225Z,22
2023-05-10T19:05:20.247Z,21.9
2023-05-10T19:10:16.929Z,21.9
2023-05-10T19:15:18.447Z,21.9
2023-05-10T19:20:16.672Z,21.9
2023-05-10T19:25:14.562Z,21.8
2023-05-10T19:30:19.617Z,21.8
2023-05-10T19:35:15.325Z,21.8
2023-05-10T19:40:15.857Z,21.8
2023-05-10T19:45:13.709Z,21.7
2023-05-10T19:50:20.625Z,21.7
2023-05-10T19:55:18.902Z,21.7
2023-05-10T20:00:22.500Z,21.7
2023-05-10T20:05:18.360Z,21.7
2023-05-10T20:10:15.858Z,21.7
2023-05-10T20:15:16.477Z,21.7
2023-05-10T20:20:18.627Z,21.6
2023-05-10T20:25:15.855Z,21.6
2023-05-10T20:30:18.019Z,21.6
2023-05-10T20:35:22.519Z,21.6
2023-05-10T20:40:16.469Z,21.6
2023-05-10T20:45:18.689Z,21.5
2023-05-10T20:50:14.493Z,21.5
2023-05-10T20:55:19.528Z,21.5
2023-05-10T21:00:18.726Z,21.5
2023-05-10T21:05:21.079Z,21.5
2023-05-10T21:10:16.041Z,21.5
2023-05-10T21:15:13.956Z,21.5
2023-05-10T21:20:17.903Z,21.5
2023-05-10T21:25:16.945Z,21.5
2023-05-10T21:30:23.918Z,21.5
2023-05-10T21:35:17.723Z,21.4
2023-05-10T21:40:24.626Z,21.4
2023-05-10T21:45:20.646Z,21.3
2023-05-10T21:50:18.601Z,21.3
2023-05-10T21:55:22.673Z,21.3
2023-05-10T22:00:16.782Z,21.3
2023-05-10T22:05:16.211Z,21.2
2023-05-10T22:10:22.138Z,21.2
2023-05-10T22:20:14.049Z,21.2
2023-05-10T22:25:13.903Z,21.1
2023-05-10T22:30:19.174Z,21.1
2023-05-10T22:35:15.969Z,21.1
2023-05-10T22:40:30.915Z,21.1
2023-05-10T22:45:13.939Z,21.1
2023-05-10T22:50:19.293Z,21
2023-05-10T22:55:15.846Z,21
2023-05-10T23:00:19.220Z,21
2023-05-10T23:05:14.469Z,21
2023-05-10T23:10:21.589Z,20.9
2023-05-10T23:15:22.395Z,20.9
2023-05-10T23:20:21.488Z,20.9
2023-05-10T23:25:13.981Z,20.8
2023-05-10T23:30:22.037Z,20.8
2023-05-10T23:35:15.896Z,20.8
2023-05-10T23:40:16.265Z,20.8
2023-05-10T23:45:18.166Z,20.8
2023-05-10T23:50:20.026Z,20.7
2023-05-10T23:55:20.208Z,20.7
